1st December 2019 | Otago, New Zealand

The Pioneer fuelled by Nutri-Grain (2019)

Moke Lake Prologue Teams: Masters Men

Pos Team Name # Members Team Time Points Overall Pos
1 (#440) (#)) OFF THE CHAIN 2 01:18:22 35 9
2 (#429) (#)) OPTIMAL PERFORMANCE 2 01:19:40 55 14
3 (#432) (#)) RIVET RACING 2 01:22:17 75 19
4 (#410) (#)) CYCLE OBSESSION 2 01:22:43 79 20
5 (#412) (#)) CYCLINGTIPS.COM 2 01:24:28 87 22
6 (#437) (#)) SILVERSKYCYCLE 2 01:24:53 91 23
7 (#411) (#)) STICKY BOTTLE 2 01:26:12 119 30
8 (#434) (#)) SHAUN & MATT - AKA SHAT 2 01:26:23 123 31
9 (#436) (#)) SHOW NO WEAKNESS 2 01:28:31 151 38
10 (#413) (#)) DAIKIN THERMAL SOLUTIONS 2 01:29:07 155 39
11 (#414) (#)) DUSTYDAZE WHANGAREI 2 01:30:17 171 43
12 (#444) (#)) TEAM SMIDDY 2 01:30:44 183 46
13 (#427) (#)) OAMARU HONDA 2 01:30:53 187 47
14 (#452) (#)) VEGAS BOYS 2 01:31:27 191 48
15 (#428) (#)) OLD BOYS OUT OF CONTROL 2 01:33:09 207 52
16 (#422) (#)) KEA - EAGLE 2 01:34:54 227 57
17 (#424) (#)) MEOGP RACING TEAM 2 01:35:22 235 59
18 (#430) (#)) OUT OF OFFICE 2 01:35:24 239 60
19 (#449) (#)) THE VIKINGS 2 01:37:11 263 66
20 (#415) (#)) FIZO CYCLING 2 01:38:01 275 69
21 (#419) (#)) ICE 2 01:38:16 279 70
22 (#454) (#)) WAZZA DUO 2 01:38:18 283 71
23 (#405) (#)) BLACKYARD RACING - STRAYA 2 01:40:16 307 77
24 (#408) (#)) CALSONASSOS IBIZA 1 2 01:41:56 323 81
25 (#443) (#)) TEAM RACK 'N' STACK 2 01:42:48 327 82
26 (#451) (#)) TWO WEAK LINKS 2 01:43:49 353 88
27 (#433) (#)) RPM 2 01:45:19 377 94
28 (#401) (#)) 2 BROKE BLOKES 2 01:45:57 393 98
29 (#447) (#)) THE BENDS 2 01:46:04 397 99
30 (#445) (#)) TERRA FIRMA SKODA 2 01:46:08 401 100
31 (#426) (#)) NEW WORLD KUMEU 2 01:46:19 409 102
32 (#407) (#)) CALCONASSOS IBIZA 3 2 01:46:20 413 103
33 (#417) (#)) HILLBILLYS 2 01:47:15 429 107
34 (#406) (#)) BOTH SIDES OF THE DITCH 2 01:47:19 433 108
35 (#409) (#)) CALSONASSOS IBIZA 4 2 01:48:41 453 113
36 (#450) (#)) THE WOLFPACK 2 01:52:40 485 121
37 (#442) (#)) TEAM KT-26 2 01:52:44 489 122
38 (#438) (#)) SINOGULF 2 01:52:47 493 123
39 (#402) (#)) 4 STRONG LEGS 2 01:54:26 515 128
40 (#446) (#)) THE 2 AMIGOS 2 01:56:08 551 137
41 (#456) (#)) ZOOMEN 2 01:56:13 555 138
42 (#453) (#)) WALTER AND STATLER 2 01:58:55 571 142
43 (#423) (#)) LUP & HONG 2 02:00:50 595 148
44 (#441) (#)) TEAM DANÆS AHON 2 02:01:04 599 149
45 (#421) (#)) ITS CHEAPER THAN THERAPY 2 02:01:36 603 150
46 (#420) (#)) INOSYM 2 02:03:48 623 155
47 (#416) (#)) GLOBALID 2 02:09:29 651 162
48 (#455) (#)) WINE DINE FINISH LINE 2 02:14:23 667 166
49 (#439) (#)) SYED & JUAN MTB TEAM 2 02:19:25 683 170
50 (#418) (#)) I CLIMB WELL FOR MY WEIGHT 2 02:35:28 699 174
(#435) (#)) SHIMANO 1